sensor_id;sensor_type;location;lat;lon;timestamp;P1;durP1;ratioP1;P2;durP2;ratioP2
48975;SDS011;34791;52.752;8.346;2023-06-14T00:01:47;3.95;;;1.83;;
48975;SDS011;34791;52.752;8.346;2023-06-14T00:04:13;3.90;;;1.65;;
48975;SDS011;34791;52.752;8.346;2023-06-14T00:06:43;5.40;;;1.85;;
48975;SDS011;34791;52.752;8.346;2023-06-14T00:09:10;8.07;;;1.73;;
48975;SDS011;34791;52.752;8.346;2023-06-14T00:11:37;6.88;;;2.00;;
48975;SDS011;34791;52.752;8.346;2023-06-14T00:14:02;7.07;;;1.70;;
48975;SDS011;34791;52.752;8.346;2023-06-14T00:16:28;7.93;;;1.90;;
48975;SDS011;34791;52.752;8.346;2023-06-14T00:18:54;6.13;;;1.83;;
48975;SDS011;34791;52.752;8.346;2023-06-14T00:21:19;9.02;;;2.13;;
48975;SDS011;34791;52.752;8.346;2023-06-14T00:23:45;7.15;;;1.83;;
48975;SDS011;34791;52.752;8.346;2023-06-14T00:26:10;4.85;;;1.92;;
48975;SDS011;34791;52.752;8.346;2023-06-14T00:28:36;5.97;;;1.80;;
48975;SDS011;34791;52.752;8.346;2023-06-14T00:31:01;7.20;;;2.25;;
48975;SDS011;34791;52.752;8.346;2023-06-14T00:33:26;5.40;;;1.80;;
48975;SDS011;34791;52.752;8.346;2023-06-14T00:35:52;6.43;;;2.00;;
48975;SDS011;34791;52.752;8.346;2023-06-14T00:38:19;7.27;;;2.07;;
48975;SDS011;34791;52.752;8.346;2023-06-14T00:40:44;6.33;;;1.80;;
48975;SDS011;34791;52.752;8.346;2023-06-14T00:43:09;4.80;;;1.83;;
48975;SDS011;34791;52.752;8.346;2023-06-14T00:45:35;5.83;;;1.90;;
48975;SDS011;34791;52.752;8.346;2023-06-14T00:48:01;6.13;;;1.93;;
48975;SDS011;34791;52.752;8.346;2023-06-14T00:50:27;4.97;;;1.90;;
48975;SDS011;34791;52.752;8.346;2023-06-14T00:52:53;5.40;;;1.90;;
48975;SDS011;34791;52.752;8.346;2023-06-14T00:55:18;5.97;;;2.10;;
48975;SDS011;34791;52.752;8.346;2023-06-14T00:57:43;6.53;;;2.43;;
48975;SDS011;34791;52.752;8.346;2023-06-14T01:05:39;4.33;;;2.03;;
48975;SDS011;34791;52.752;8.346;2023-06-14T01:10:52;4.50;;;2.00;;
48975;SDS011;34791;52.752;8.346;2023-06-14T01:13:38;5.20;;;2.10;;
48975;SDS011;34791;52.752;8.346;2023-06-14T01:16:04;5.00;;;2.23;;
48975;SDS011;34791;52.752;8.346;2023-06-14T01:18:30;6.87;;;3.17;;
48975;SDS011;34791;52.752;8.346;2023-06-14T01:20:55;7.10;;;2.40;;
48975;SDS011;34791;52.752;8.346;2023-06-14T01:23:21;12.57;;;2.20;;
48975;SDS011;34791;52.752;8.346;2023-06-14T01:25:47;6.63;;;2.40;;
48975;SDS011;34791;52.752;8.346;2023-06-14T01:28:13;5.20;;;2.00;;
48975;SDS011;34791;52.752;8.346;2023-06-14T01:30:40;5.83;;;2.00;;
48975;SDS011;34791;52.752;8.346;2023-06-14T01:33:11;4.93;;;2.07;;
48975;SDS011;34791;52.752;8.346;2023-06-14T01:35:37;6.00;;;2.40;;
48975;SDS011;34791;52.752;8.346;2023-06-14T01:38:02;6.73;;;2.20;;
48975;SDS011;34791;52.752;8.346;2023-06-14T01:40:28;4.70;;;2.53;;
48975;SDS011;34791;52.752;8.346;2023-06-14T01:42:55;7.40;;;3.37;;
48975;SDS011;34791;52.752;8.346;2023-06-14T01:45:21;4.53;;;2.50;;
48975;SDS011;34791;52.752;8.346;2023-06-14T01:47:46;8.77;;;2.43;;
48975;SDS011;34791;52.752;8.346;2023-06-14T01:50:12;6.33;;;2.33;;
48975;SDS011;34791;52.752;8.346;2023-06-14T01:52:38;6.97;;;2.50;;
48975;SDS011;34791;52.752;8.346;2023-06-14T01:55:06;5.60;;;2.47;;
48975;SDS011;34791;52.752;8.346;2023-06-14T01:57:33;8.10;;;2.50;;
48975;SDS011;34791;52.752;8.346;2023-06-14T01:59:58;7.67;;;2.77;;
48975;SDS011;34791;52.752;8.346;2023-06-14T02:02:23;6.50;;;2.50;;
48975;SDS011;34791;52.752;8.346;2023-06-14T02:04:48;5.43;;;2.40;;
48975;SDS011;34791;52.752;8.346;2023-06-14T02:07:14;6.60;;;2.67;;
48975;SDS011;34791;52.752;8.346;2023-06-14T02:09:40;6.27;;;2.77;;
48975;SDS011;34791;52.752;8.346;2023-06-14T02:12:05;5.83;;;2.33;;
48975;SDS011;34791;52.752;8.346;2023-06-14T02:14:31;6.50;;;2.60;;
48975;SDS011;34791;52.752;8.346;2023-06-14T02:16:56;8.37;;;2.67;;
48975;SDS011;34791;52.752;8.346;2023-06-14T02:19:21;4.53;;;2.47;;
48975;SDS011;34791;52.752;8.346;2023-06-14T02:21:47;6.80;;;2.63;;
48975;SDS011;34791;52.752;8.346;2023-06-14T02:24:12;7.13;;;3.23;;
48975;SDS011;34791;52.752;8.346;2023-06-14T02:26:37;7.67;;;2.33;;
48975;SDS011;34791;52.752;8.346;2023-06-14T02:29:03;10.87;;;2.60;;
48975;SDS011;34791;52.752;8.346;2023-06-14T02:31:30;7.53;;;2.80;;
48975;SDS011;34791;52.752;8.346;2023-06-14T02:33:56;6.33;;;2.70;;
48975;SDS011;34791;52.752;8.346;2023-06-14T02:36:21;6.20;;;3.03;;
48975;SDS011;34791;52.752;8.346;2023-06-14T02:38:46;8.00;;;2.90;;
48975;SDS011;34791;52.752;8.346;2023-06-14T02:41:12;4.60;;;2.80;;
48975;SDS011;34791;52.752;8.346;2023-06-14T02:43:37;4.63;;;2.60;;
48975;SDS011;34791;52.752;8.346;2023-06-14T02:46:03;5.73;;;2.83;;
48975;SDS011;34791;52.752;8.346;2023-06-14T02:48:29;7.23;;;3.17;;
48975;SDS011;34791;52.752;8.346;2023-06-14T02:50:54;8.27;;;2.80;;
48975;SDS011;34791;52.752;8.346;2023-06-14T02:53:19;8.10;;;3.20;;
48975;SDS011;34791;52.752;8.346;2023-06-14T02:55:45;6.23;;;2.90;;
48975;SDS011;34791;52.752;8.346;2023-06-14T02:58:11;8.23;;;3.20;;
48975;SDS011;34791;52.752;8.346;2023-06-14T03:00:38;8.20;;;3.07;;
48975;SDS011;34791;52.752;8.346;2023-06-14T03:03:03;6.67;;;3.20;;
48975;SDS011;34791;52.752;8.346;2023-06-14T03:05:37;7.63;;;3.00;;
48975;SDS011;34791;52.752;8.346;2023-06-14T03:08:05;9.80;;;3.17;;
48975;SDS011;34791;52.752;8.346;2023-06-14T03:10:32;9.67;;;3.10;;
48975;SDS011;34791;52.752;8.346;2023-06-14T03:13:05;8.37;;;3.00;;
48975;SDS011;34791;52.752;8.346;2023-06-14T03:15:30;8.87;;;3.10;;
48975;SDS011;34791;52.752;8.346;2023-06-14T03:17:56;8.30;;;3.13;;
48975;SDS011;34791;52.752;8.346;2023-06-14T03:20:22;8.40;;;3.50;;
48975;SDS011;34791;52.752;8.346;2023-06-14T03:22:49;8.73;;;3.37;;
48975;SDS011;34791;52.752;8.346;2023-06-14T03:25:14;7.60;;;2.90;;
48975;SDS011;34791;52.752;8.346;2023-06-14T03:27:40;6.73;;;3.30;;
48975;SDS011;34791;52.752;8.346;2023-06-14T03:30:05;7.60;;;3.07;;
48975;SDS011;34791;52.752;8.346;2023-06-14T03:32:31;6.37;;;2.90;;
48975;SDS011;34791;52.752;8.346;2023-06-14T03:34:59;5.53;;;3.00;;
48975;SDS011;34791;52.752;8.346;2023-06-14T03:37:25;5.90;;;2.80;;
48975;SDS011;34791;52.752;8.346;2023-06-14T03:39:50;6.43;;;2.73;;
48975;SDS011;34791;52.752;8.346;2023-06-14T03:42:15;6.13;;;2.80;;
48975;SDS011;34791;52.752;8.346;2023-06-14T03:44:40;5.87;;;2.80;;
48975;SDS011;34791;52.752;8.346;2023-06-14T03:47:06;7.93;;;3.10;;
48975;SDS011;34791;52.752;8.346;2023-06-14T03:49:31;10.57;;;2.77;;
48975;SDS011;34791;52.752;8.346;2023-06-14T03:51:56;7.53;;;3.20;;
48975;SDS011;34791;52.752;8.346;2023-06-14T03:54:22;6.53;;;2.80;;
48975;SDS011;34791;52.752;8.346;2023-06-14T03:56:47;6.43;;;3.00;;
48975;SDS011;34791;52.752;8.346;2023-06-14T03:59:13;6.83;;;2.80;;
48975;SDS011;34791;52.752;8.346;2023-06-14T04:01:38;5.70;;;2.70;;
48975;SDS011;34791;52.752;8.346;2023-06-14T04:04:09;10.23;;;3.05;;
48975;SDS011;34791;52.752;8.346;2023-06-14T04:06:35;6.40;;;2.80;;
48975;SDS011;34791;52.752;8.346;2023-06-14T04:09:01;5.15;;;2.85;;
48975;SDS011;34791;52.752;8.346;2023-06-14T04:11:27;8.70;;;3.00;;
48975;SDS011;34791;52.752;8.346;2023-06-14T04:13:52;7.03;;;2.80;;
48975;SDS011;34791;52.752;8.346;2023-06-14T04:16:19;5.43;;;2.70;;
48975;SDS011;34791;52.752;8.346;2023-06-14T04:18:44;10.05;;;2.97;;
48975;SDS011;34791;52.752;8.346;2023-06-14T04:21:09;5.80;;;2.80;;
48975;SDS011;34791;52.752;8.346;2023-06-14T04:23:34;6.45;;;2.65;;
48975;SDS011;34791;52.752;8.346;2023-06-14T04:26:00;5.70;;;2.63;;
48975;SDS011;34791;52.752;8.346;2023-06-14T04:28:27;6.40;;;2.83;;
48975;SDS011;34791;52.752;8.346;2023-06-14T04:30:52;6.35;;;2.83;;
48975;SDS011;34791;52.752;8.346;2023-06-14T04:33:18;6.65;;;2.92;;
48975;SDS011;34791;52.752;8.346;2023-06-14T04:35:44;5.68;;;2.55;;
48975;SDS011;34791;52.752;8.346;2023-06-14T04:38:12;8.90;;;2.90;;
48975;SDS011;34791;52.752;8.346;2023-06-14T04:40:37;6.97;;;2.40;;
48975;SDS011;34791;52.752;8.346;2023-06-14T04:43:08;6.43;;;2.60;;
48975;SDS011;34791;52.752;8.346;2023-06-14T04:45:33;8.93;;;2.65;;
48975;SDS011;34791;52.752;8.346;2023-06-14T04:47:59;6.55;;;2.60;;
48975;SDS011;34791;52.752;8.346;2023-06-14T04:50:24;6.45;;;2.58;;
48975;SDS011;34791;52.752;8.346;2023-06-14T04:52:49;6.97;;;2.88;;
48975;SDS011;34791;52.752;8.346;2023-06-14T04:55:16;7.13;;;2.60;;
48975;SDS011;34791;52.752;8.346;2023-06-14T04:57:41;5.88;;;2.58;;
48975;SDS011;34791;52.752;8.346;2023-06-14T05:00:07;7.20;;;2.80;;
48975;SDS011;34791;52.752;8.346;2023-06-14T05:02:36;5.93;;;2.60;;
48975;SDS011;34791;52.752;8.346;2023-06-14T05:05:02;6.07;;;2.78;;
48975;SDS011;34791;52.752;8.346;2023-06-14T05:07:28;5.85;;;2.70;;
48975;SDS011;34791;52.752;8.346;2023-06-14T05:09:53;11.40;;;2.33;;
48975;SDS011;34791;52.752;8.346;2023-06-14T05:12:18;4.78;;;2.80;;
48975;SDS011;34791;52.752;8.346;2023-06-14T05:14:44;4.68;;;2.35;;
48975;SDS011;34791;52.752;8.346;2023-06-14T05:17:09;6.60;;;2.60;;
48975;SDS011;34791;52.752;8.346;2023-06-14T05:19:35;5.72;;;2.90;;
48975;SDS011;34791;52.752;8.346;2023-06-14T05:22:00;5.38;;;2.45;;
48975;SDS011;34791;52.752;8.346;2023-06-14T05:24:27;6.88;;;2.50;;
48975;SDS011;34791;52.752;8.346;2023-06-14T05:26:55;6.57;;;3.00;;
48975;SDS011;34791;52.752;8.346;2023-06-14T05:29:20;6.63;;;2.60;;
48975;SDS011;34791;52.752;8.346;2023-06-14T05:31:45;5.80;;;2.83;;
48975;SDS011;34791;52.752;8.346;2023-06-14T05:34:11;8.60;;;2.78;;
48975;SDS011;34791;52.752;8.346;2023-06-14T05:36:36;6.07;;;2.70;;
48975;SDS011;34791;52.752;8.346;2023-06-14T05:39:02;6.03;;;2.67;;
48975;SDS011;34791;52.752;8.346;2023-06-14T05:41:28;6.20;;;2.70;;
48975;SDS011;34791;52.752;8.346;2023-06-14T05:43:56;9.18;;;2.85;;
48975;SDS011;34791;52.752;8.346;2023-06-14T05:46:22;8.07;;;2.83;;
48975;SDS011;34791;52.752;8.346;2023-06-14T05:48:54;6.90;;;2.65;;
48975;SDS011;34791;52.752;8.346;2023-06-14T05:51:19;9.13;;;3.45;;
48975;SDS011;34791;52.752;8.346;2023-06-14T05:53:45;4.93;;;2.60;;
48975;SDS011;34791;52.752;8.346;2023-06-14T05:56:11;7.38;;;2.30;;
48975;SDS011;34791;52.752;8.346;2023-06-14T05:58:36;6.90;;;2.72;;
48975;SDS011;34791;52.752;8.346;2023-06-14T06:01:02;5.53;;;2.72;;
48975;SDS011;34791;52.752;8.346;2023-06-14T06:03:27;5.90;;;2.63;;
48975;SDS011;34791;52.752;8.346;2023-06-14T06:05:54;8.20;;;2.72;;
48975;SDS011;34791;52.752;8.346;2023-06-14T06:08:19;5.30;;;2.20;;
48975;SDS011;34791;52.752;8.346;2023-06-14T06:10:45;5.95;;;2.58;;
48975;SDS011;34791;52.752;8.346;2023-06-14T06:13:11;4.10;;;2.20;;
48975;SDS011;34791;52.752;8.346;2023-06-14T06:15:36;4.15;;;1.95;;
48975;SDS011;34791;52.752;8.346;2023-06-14T06:18:01;5.13;;;2.50;;
48975;SDS011;34791;52.752;8.346;2023-06-14T06:20:26;4.63;;;2.20;;
48975;SDS011;34791;52.752;8.346;2023-06-14T06:22:53;7.32;;;2.47;;
48975;SDS011;34791;52.752;8.346;2023-06-14T06:25:19;5.68;;;2.20;;
48975;SDS011;34791;52.752;8.346;2023-06-14T06:27:44;8.80;;;2.60;;
48975;SDS011;34791;52.752;8.346;2023-06-14T06:30:10;6.63;;;2.17;;
48975;SDS011;34791;52.752;8.346;2023-06-14T06:32:35;6.68;;;1.98;;
48975;SDS011;34791;52.752;8.346;2023-06-14T06:35:01;4.82;;;2.20;;
48975;SDS011;34791;52.752;8.346;2023-06-14T06:37:26;4.18;;;2.33;;
48975;SDS011;34791;52.752;8.346;2023-06-14T06:39:51;4.57;;;2.20;;
48975;SDS011;34791;52.752;8.346;2023-06-14T06:42:16;4.32;;;2.33;;
48975;SDS011;34791;52.752;8.346;2023-06-14T06:44:42;4.18;;;1.88;;
48975;SDS011;34791;52.752;8.346;2023-06-14T06:47:07;6.45;;;2.17;;
48975;SDS011;34791;52.752;8.346;2023-06-14T06:49:32;3.50;;;2.05;;
48975;SDS011;34791;52.752;8.346;2023-06-14T06:52:04;4.25;;;2.28;;
48975;SDS011;34791;52.752;8.346;2023-06-14T06:54:30;4.30;;;2.33;;
48975;SDS011;34791;52.752;8.346;2023-06-14T06:56:55;4.90;;;1.85;;
48975;SDS011;34791;52.752;8.346;2023-06-14T06:59:21;6.47;;;2.25;;
48975;SDS011;34791;52.752;8.346;2023-06-14T07:01:46;3.97;;;2.05;;
48975;SDS011;34791;52.752;8.346;2023-06-14T07:04:12;7.13;;;2.05;;
48975;SDS011;34791;52.752;8.346;2023-06-14T07:06:37;4.50;;;1.67;;
48975;SDS011;34791;52.752;8.346;2023-06-14T07:09:03;5.35;;;1.92;;
48975;SDS011;34791;52.752;8.346;2023-06-14T07:11:30;4.03;;;1.73;;
48975;SDS011;34791;52.752;8.346;2023-06-14T07:13:55;2.95;;;1.70;;
48975;SDS011;34791;52.752;8.346;2023-06-14T07:16:20;5.28;;;2.00;;
48975;SDS011;34791;52.752;8.346;2023-06-14T07:18:45;6.68;;;2.20;;
48975;SDS011;34791;52.752;8.346;2023-06-14T07:21:11;5.78;;;2.10;;
48975;SDS011;34791;52.752;8.346;2023-06-14T07:23:36;4.18;;;2.00;;
48975;SDS011;34791;52.752;8.346;2023-06-14T07:26:01;3.60;;;1.70;;
48975;SDS011;34791;52.752;8.346;2023-06-14T07:28:27;6.45;;;2.03;;
48975;SDS011;34791;52.752;8.346;2023-06-14T07:30:52;7.35;;;1.77;;
48975;SDS011;34791;52.752;8.346;2023-06-14T07:33:17;4.45;;;1.75;;
48975;SDS011;34791;52.752;8.346;2023-06-14T07:35:43;4.10;;;1.75;;
48975;SDS011;34791;52.752;8.346;2023-06-14T07:38:08;3.95;;;1.75;;
48975;SDS011;34791;52.752;8.346;2023-06-14T07:40:33;3.65;;;1.40;;
48975;SDS011;34791;52.752;8.346;2023-06-14T07:42:59;4.43;;;1.70;;
48975;SDS011;34791;52.752;8.346;2023-06-14T07:45:24;5.05;;;1.70;;
48975;SDS011;34791;52.752;8.346;2023-06-14T07:47:49;5.53;;;1.83;;
48975;SDS011;34791;52.752;8.346;2023-06-14T07:50:16;3.17;;;1.45;;
48975;SDS011;34791;52.752;8.346;2023-06-14T07:52:42;3.78;;;1.90;;
48975;SDS011;34791;52.752;8.346;2023-06-14T07:55:07;3.15;;;1.40;;
48975;SDS011;34791;52.752;8.346;2023-06-14T07:57:32;4.95;;;1.42;;
48975;SDS011;34791;52.752;8.346;2023-06-14T07:59:58;2.20;;;1.17;;
48975;SDS011;34791;52.752;8.346;2023-06-14T08:02:23;3.75;;;1.35;;
48975;SDS011;34791;52.752;8.346;2023-06-14T08:04:49;4.80;;;1.75;;
48975;SDS011;34791;52.752;8.346;2023-06-14T08:07:14;2.65;;;1.27;;
48975;SDS011;34791;52.752;8.346;2023-06-14T08:09:40;2.80;;;1.40;;
48975;SDS011;34791;52.752;8.346;2023-06-14T08:12:06;3.60;;;1.65;;
48975;SDS011;34791;52.752;8.346;2023-06-14T08:14:38;3.97;;;1.65;;
48975;SDS011;34791;52.752;8.346;2023-06-14T08:17:04;2.65;;;1.15;;
48975;SDS011;34791;52.752;8.346;2023-06-14T08:19:30;4.22;;;1.55;;
48975;SDS011;34791;52.752;8.346;2023-06-14T08:21:56;4.40;;;1.25;;
48975;SDS011;34791;52.752;8.346;2023-06-14T08:24:21;6.50;;;1.60;;
48975;SDS011;34791;52.752;8.346;2023-06-14T08:26:49;2.70;;;1.35;;
48975;SDS011;34791;52.752;8.346;2023-06-14T08:29:15;2.80;;;1.35;;
48975;SDS011;34791;52.752;8.346;2023-06-14T08:31:40;4.13;;;1.50;;
48975;SDS011;34791;52.752;8.346;2023-06-14T08:34:05;4.43;;;1.38;;
48975;SDS011;34791;52.752;8.346;2023-06-14T08:36:31;3.17;;;1.60;;
48975;SDS011;34791;52.752;8.346;2023-06-14T08:38:56;3.03;;;1.30;;
48975;SDS011;34791;52.752;8.346;2023-06-14T08:41:21;3.47;;;1.48;;
48975;SDS011;34791;52.752;8.346;2023-06-14T08:43:48;4.60;;;1.45;;
48975;SDS011;34791;52.752;8.346;2023-06-14T08:46:14;2.88;;;1.40;;
48975;SDS011;34791;52.752;8.346;2023-06-14T08:48:44;3.17;;;1.60;;
48975;SDS011;34791;52.752;8.346;2023-06-14T08:51:10;3.78;;;1.60;;
48975;SDS011;34791;52.752;8.346;2023-06-14T08:53:36;4.45;;;1.70;;
48975;SDS011;34791;52.752;8.346;2023-06-14T08:56:07;2.53;;;1.30;;
48975;SDS011;34791;52.752;8.346;2023-06-14T09:01:08;3.03;;;1.08;;
48975;SDS011;34791;52.752;8.346;2023-06-14T09:03:34;5.72;;;1.42;;
48975;SDS011;34791;52.752;8.346;2023-06-14T09:05:59;2.72;;;1.33;;
48975;SDS011;34791;52.752;8.346;2023-06-14T09:08:26;3.38;;;1.48;;
48975;SDS011;34791;52.752;8.346;2023-06-14T09:10:55;2.63;;;1.42;;
48975;SDS011;34791;52.752;8.346;2023-06-14T09:13:21;3.70;;;1.58;;
48975;SDS011;34791;52.752;8.346;2023-06-14T09:15:46;3.17;;;1.55;;
48975;SDS011;34791;52.752;8.346;2023-06-14T09:18:11;5.20;;;1.70;;
48975;SDS011;34791;52.752;8.346;2023-06-14T09:20:36;3.10;;;1.05;;
48975;SDS011;34791;52.752;8.346;2023-06-14T09:23:02;4.15;;;1.85;;
48975;SDS011;34791;52.752;8.346;2023-06-14T09:25:27;2.70;;;1.52;;
48975;SDS011;34791;52.752;8.346;2023-06-14T09:27:53;2.75;;;1.50;;
48975;SDS011;34791;52.752;8.346;2023-06-14T09:30:19;2.05;;;0.98;;
48975;SDS011;34791;52.752;8.346;2023-06-14T09:32:45;4.72;;;1.30;;
48975;SDS011;34791;52.752;8.346;2023-06-14T09:35:10;4.22;;;1.42;;
48975;SDS011;34791;52.752;8.346;2023-06-14T09:37:35;2.45;;;0.98;;
48975;SDS011;34791;52.752;8.346;2023-06-14T09:40:03;3.42;;;1.40;;
48975;SDS011;34791;52.752;8.346;2023-06-14T09:42:29;4.50;;;1.38;;
48975;SDS011;34791;52.752;8.346;2023-06-14T09:44:55;4.57;;;1.77;;
48975;SDS011;34791;52.752;8.346;2023-06-14T09:47:21;2.13;;;1.08;;
48975;SDS011;34791;52.752;8.346;2023-06-14T09:49:46;3.67;;;1.40;;
48975;SDS011;34791;52.752;8.346;2023-06-14T09:52:16;3.38;;;1.40;;
48975;SDS011;34791;52.752;8.346;2023-06-14T09:54:42;3.50;;;1.20;;
48975;SDS011;34791;52.752;8.346;2023-06-14T09:57:11;4.90;;;1.27;;
48975;SDS011;34791;52.752;8.346;2023-06-14T09:59:42;1.30;;;0.68;;
48975;SDS011;34791;52.752;8.346;2023-06-14T10:02:10;2.33;;;1.10;;
48975;SDS011;34791;52.752;8.346;2023-06-14T10:04:36;4.63;;;1.40;;
48975;SDS011;34791;52.752;8.346;2023-06-14T10:09:32;1.98;;;1.10;;
48975;SDS011;34791;52.752;8.346;2023-06-14T10:11:58;3.50;;;1.40;;
48975;SDS011;34791;52.752;8.346;2023-06-14T10:14:24;3.03;;;1.33;;
48975;SDS011;34791;52.752;8.346;2023-06-14T10:17:09;1.85;;;0.90;;
48975;SDS011;34791;52.752;8.346;2023-06-14T10:19:46;4.47;;;1.30;;
48975;SDS011;34791;52.752;8.346;2023-06-14T10:22:22;2.42;;;1.00;;
48975;SDS011;34791;52.752;8.346;2023-06-14T10:24:50;5.63;;;1.35;;
48975;SDS011;34791;52.752;8.346;2023-06-14T10:27:15;4.85;;;1.23;;
48975;SDS011;34791;52.752;8.346;2023-06-14T10:32:55;4.13;;;1.35;;
48975;SDS011;34791;52.752;8.346;2023-06-14T10:35:26;2.92;;;1.30;;
48975;SDS011;34791;52.752;8.346;2023-06-14T10:37:51;3.70;;;1.65;;
48975;SDS011;34791;52.752;8.346;2023-06-14T10:40:32;3.28;;;1.42;;
48975;SDS011;34791;52.752;8.346;2023-06-14T10:45:23;3.90;;;1.67;;
48975;SDS011;34791;52.752;8.346;2023-06-14T10:47:49;4.07;;;1.42;;
48975;SDS011;34791;52.752;8.346;2023-06-14T10:50:17;3.33;;;1.45;;
48975;SDS011;34791;52.752;8.346;2023-06-14T10:52:44;3.08;;;1.23;;
48975;SDS011;34791;52.752;8.346;2023-06-14T10:55:13;2.92;;;1.40;;
48975;SDS011;34791;52.752;8.346;2023-06-14T10:57:50;4.30;;;1.10;;
48975;SDS011;34791;52.752;8.346;2023-06-14T11:00:16;2.85;;;1.30;;
48975;SDS011;34791;52.752;8.346;2023-06-14T11:02:51;2.58;;;1.30;;
48975;SDS011;34791;52.752;8.346;2023-06-14T13:57:30;7.10;;;2.30;;
48975;SDS011;34791;52.752;8.346;2023-06-14T13:59:55;6.93;;;2.10;;
48975;SDS011;34791;52.752;8.346;2023-06-14T14:02:25;3.97;;;2.30;;
48975;SDS011;34791;52.752;8.346;2023-06-14T14:04:51;4.85;;;2.33;;
48975;SDS011;34791;52.752;8.346;2023-06-14T14:07:18;4.10;;;2.10;;
48975;SDS011;34791;52.752;8.346;2023-06-14T14:09:44;4.65;;;2.40;;
48975;SDS011;34791;52.752;8.346;2023-06-14T14:12:09;4.85;;;2.30;;
48975;SDS011;34791;52.752;8.346;2023-06-14T14:14:35;3.67;;;2.13;;
48975;SDS011;34791;52.752;8.346;2023-06-14T14:17:00;4.45;;;2.03;;
48975;SDS011;34791;52.752;8.346;2023-06-14T14:19:25;5.28;;;2.42;;
48975;SDS011;34791;52.752;8.346;2023-06-14T14:21:51;6.07;;;2.00;;
48975;SDS011;34791;52.752;8.346;2023-06-14T14:24:18;3.90;;;1.92;;
48975;SDS011;34791;52.752;8.346;2023-06-14T14:26:43;3.58;;;1.95;;
48975;SDS011;34791;52.752;8.346;2023-06-14T14:29:09;4.57;;;2.00;;
48975;SDS011;34791;52.752;8.346;2023-06-14T14:31:36;3.58;;;1.98;;
48975;SDS011;34791;52.752;8.346;2023-06-14T14:34:02;3.97;;;2.10;;
48975;SDS011;34791;52.752;8.346;2023-06-14T14:36:27;6.03;;;2.13;;
48975;SDS011;34791;52.752;8.346;2023-06-14T14:38:52;7.45;;;2.60;;
48975;SDS011;34791;52.752;8.346;2023-06-14T14:41:18;4.53;;;2.10;;
48975;SDS011;34791;52.752;8.346;2023-06-14T14:43:43;4.95;;;2.35;;
48975;SDS011;34791;52.752;8.346;2023-06-14T14:46:08;4.75;;;2.13;;
48975;SDS011;34791;52.752;8.346;2023-06-14T14:48:34;5.82;;;1.98;;
48975;SDS011;34791;52.752;8.346;2023-06-14T14:50:59;7.03;;;2.80;;
48975;SDS011;34791;52.752;8.346;2023-06-14T14:53:24;6.07;;;2.20;;
48975;SDS011;34791;52.752;8.346;2023-06-14T14:55:49;8.55;;;2.15;;
48975;SDS011;34791;52.752;8.346;2023-06-14T14:58:15;3.92;;;1.98;;
48975;SDS011;34791;52.752;8.346;2023-06-14T15:00:46;9.13;;;3.15;;
48975;SDS011;34791;52.752;8.346;2023-06-14T15:03:12;3.97;;;2.20;;
48975;SDS011;34791;52.752;8.346;2023-06-14T15:05:37;6.72;;;2.30;;
48975;SDS011;34791;52.752;8.346;2023-06-14T15:08:03;6.30;;;2.38;;
48975;SDS011;34791;52.752;8.346;2023-06-14T15:10:28;5.45;;;2.67;;
48975;SDS011;34791;52.752;8.346;2023-06-14T15:12:54;5.28;;;2.50;;
48975;SDS011;34791;52.752;8.346;2023-06-14T15:15:19;3.60;;;1.98;;
48975;SDS011;34791;52.752;8.346;2023-06-14T15:17:44;4.88;;;2.95;;
48975;SDS011;34791;52.752;8.346;2023-06-14T15:20:10;3.53;;;2.10;;
48975;SDS011;34791;52.752;8.346;2023-06-14T15:22:37;7.95;;;2.40;;
48975;SDS011;34791;52.752;8.346;2023-06-14T15:25:03;8.57;;;2.80;;
48975;SDS011;34791;52.752;8.346;2023-06-14T15:27:28;3.90;;;1.92;;
48975;SDS011;34791;52.752;8.346;2023-06-14T15:29:53;6.55;;;2.30;;
48975;SDS011;34791;52.752;8.346;2023-06-14T15:32:19;4.45;;;2.00;;
48975;SDS011;34791;52.752;8.346;2023-06-14T15:34:44;4.57;;;1.83;;
48975;SDS011;34791;52.752;8.346;2023-06-14T15:37:10;7.05;;;2.22;;
48975;SDS011;34791;52.752;8.346;2023-06-14T15:39:35;7.25;;;2.30;;
48975;SDS011;34791;52.752;8.346;2023-06-14T15:42:02;4.35;;;2.00;;
48975;SDS011;34791;52.752;8.346;2023-06-14T15:44:27;7.53;;;2.05;;
48975;SDS011;34791;52.752;8.346;2023-06-14T15:46:53;4.45;;;1.95;;
48975;SDS011;34791;52.752;8.346;2023-06-14T15:49:19;3.97;;;2.22;;
48975;SDS011;34791;52.752;8.346;2023-06-14T15:51:45;5.57;;;2.10;;
48975;SDS011;34791;52.752;8.346;2023-06-14T15:54:10;5.82;;;2.00;;
48975;SDS011;34791;52.752;8.346;2023-06-14T15:56:36;5.18;;;2.30;;
48975;SDS011;34791;52.752;8.346;2023-06-14T15:59:01;5.72;;;2.20;;
48975;SDS011;34791;52.752;8.346;2023-06-14T16:01:27;5.78;;;2.55;;
48975;SDS011;34791;52.752;8.346;2023-06-14T16:03:53;12.95;;;2.28;;
48975;SDS011;34791;52.752;8.346;2023-06-14T16:06:19;6.03;;;1.98;;
48975;SDS011;34791;52.752;8.346;2023-06-14T16:08:44;4.80;;;1.90;;
48975;SDS011;34791;52.752;8.346;2023-06-14T16:11:10;3.17;;;1.80;;
48975;SDS011;34791;52.752;8.346;2023-06-14T16:13:36;4.47;;;1.90;;
48975;SDS011;34791;52.752;8.346;2023-06-14T16:16:01;9.10;;;2.33;;
48975;SDS011;34791;52.752;8.346;2023-06-14T16:18:26;5.15;;;2.10;;
48975;SDS011;34791;52.752;8.346;2023-06-14T16:20:52;6.07;;;2.10;;
48975;SDS011;34791;52.752;8.346;2023-06-14T16:23:20;6.70;;;2.15;;
48975;SDS011;34791;52.752;8.346;2023-06-14T16:25:45;7.55;;;2.28;;
48975;SDS011;34791;52.752;8.346;2023-06-14T16:28:10;5.85;;;2.10;;
48975;SDS011;34791;52.752;8.346;2023-06-14T16:30:35;4.25;;;2.17;;
48975;SDS011;34791;52.752;8.346;2023-06-14T16:33:01;4.10;;;2.30;;
48975;SDS011;34791;52.752;8.346;2023-06-14T16:35:26;4.93;;;2.38;;
48975;SDS011;34791;52.752;8.346;2023-06-14T16:37:51;8.85;;;2.40;;
48975;SDS011;34791;52.752;8.346;2023-06-14T16:40:17;5.28;;;2.00;;
48975;SDS011;34791;52.752;8.346;2023-06-14T16:42:43;5.05;;;2.20;;
48975;SDS011;34791;52.752;8.346;2023-06-14T16:45:08;6.13;;;2.55;;
48975;SDS011;34791;52.752;8.346;2023-06-14T16:47:34;6.43;;;2.17;;
48975;SDS011;34791;52.752;8.346;2023-06-14T16:49:59;9.38;;;2.95;;
48975;SDS011;34791;52.752;8.346;2023-06-14T16:52:25;5.28;;;2.20;;
48975;SDS011;34791;52.752;8.346;2023-06-14T16:54:50;4.10;;;2.08;;
48975;SDS011;34791;52.752;8.346;2023-06-14T16:57:15;5.43;;;2.40;;
48975;SDS011;34791;52.752;8.346;2023-06-14T16:59:40;3.95;;;2.10;;
48975;SDS011;34791;52.752;8.346;2023-06-14T17:02:06;4.90;;;1.90;;
48975;SDS011;34791;52.752;8.346;2023-06-14T17:04:31;7.97;;;2.30;;
48975;SDS011;34791;52.752;8.346;2023-06-14T17:06:57;4.25;;;2.10;;
48975;SDS011;34791;52.752;8.346;2023-06-14T17:09:22;6.03;;;2.10;;
48975;SDS011;34791;52.752;8.346;2023-06-14T17:11:48;7.88;;;2.60;;
48975;SDS011;34791;52.752;8.346;2023-06-14T17:14:13;6.32;;;2.30;;
48975;SDS011;34791;52.752;8.346;2023-06-14T17:16:38;5.90;;;2.50;;
48975;SDS011;34791;52.752;8.346;2023-06-14T17:19:04;8.93;;;2.30;;
48975;SDS011;34791;52.752;8.346;2023-06-14T17:21:32;4.53;;;2.10;;
48975;SDS011;34791;52.752;8.346;2023-06-14T17:23:57;4.40;;;2.45;;
48975;SDS011;34791;52.752;8.346;2023-06-14T17:26:23;6.20;;;2.40;;
48975;SDS011;34791;52.752;8.346;2023-06-14T17:28:48;6.95;;;2.13;;
48975;SDS011;34791;52.752;8.346;2023-06-14T17:31:14;5.05;;;2.28;;
48975;SDS011;34791;52.752;8.346;2023-06-14T17:33:39;4.68;;;2.20;;
48975;SDS011;34791;52.752;8.346;2023-06-14T17:36:04;6.30;;;2.25;;
48975;SDS011;34791;52.752;8.346;2023-06-14T17:38:30;8.90;;;2.30;;
48975;SDS011;34791;52.752;8.346;2023-06-14T17:40:56;5.35;;;2.15;;
48975;SDS011;34791;52.752;8.346;2023-06-14T17:43:22;10.13;;;2.42;;
48975;SDS011;34791;52.752;8.346;2023-06-14T17:45:48;4.93;;;2.30;;
48975;SDS011;34791;52.752;8.346;2023-06-14T17:48:13;6.53;;;2.38;;
48975;SDS011;34791;52.752;8.346;2023-06-14T17:50:39;7.90;;;2.30;;
48975;SDS011;34791;52.752;8.346;2023-06-14T17:53:04;4.55;;;2.42;;